Terminal Aerodrome Forecast
Issued by NWS Burlington, VT

Home | Current Version | Previous Version | Text Only | Print | Product List | Glossary On
Versions: 1 2 3 4 5 6 7 8 9 10 11 12 13 14 15 16
169
FTUS41 KBTV 240546
TAFBTV
TAF
KBTV 240546Z 2406/2506 VRB03KT P6SM OVC050
     FM241500 VRB03KT P6SM OVC040
     FM241700 18009KT 6SM -SHRA BR OVC035
     FM241900 19009KT 5SM -SHRA BR OVC020
     FM242200 18009KT P6SM VCSH OVC015=

USA.gov is the U.S. government's official web portal to all federal, state and local government web resources and services.